Terminal Aerodrome Forecast
Issued by NWS Tulsa, OK

Home | Current Version | Previous Version | Text Only | Print | Product List | Glossary On
Versions: 1 2 3 4 5 6 7 8 9 10 11 12 13 14 15 16 17
000
FTUS44 KTSA 162320
TAFFSM
TAF
KFSM 162320Z 1700/1724 19012KT P6SM SCT070
     FM170700 VRB06KT P6SM VCTS BKN040CB BKN100
      TEMPO 1708/1710 VRB15KT 3SM TSRA SCT025 BKN035CB
     FM171100 VRB05KT P6SM SCT025 BKN035
     FM171400 26007KT P6SM FEW015 BKN025=

USA.gov is the U.S. government's official web portal to all federal, state and local government web resources and services.